sensor_id;sensor_type;location;lat;lon;timestamp;P1;durP1;ratioP1;P2;durP2;ratioP2
14282;SDS011;72649;59.274;18.450;2023-09-19T00:00:44;13.13;;;5.87;;
14282;SDS011;72649;59.274;18.450;2023-09-19T00:03:13;12.60;;;5.67;;
14282;SDS011;72649;59.274;18.450;2023-09-19T00:05:41;14.23;;;6.57;;
14282;SDS011;72649;59.274;18.450;2023-09-19T00:08:12;10.03;;;5.13;;
14282;SDS011;72649;59.274;18.450;2023-09-19T00:10:42;13.10;;;6.43;;
14282;SDS011;72649;59.274;18.450;2023-09-19T00:13:10;8.43;;;5.00;;
14282;SDS011;72649;59.274;18.450;2023-09-19T00:15:43;12.80;;;7.00;;
14282;SDS011;72649;59.274;18.450;2023-09-19T00:18:16;9.93;;;6.27;;
14282;SDS011;72649;59.274;18.450;2023-09-19T00:20:48;13.33;;;7.10;;
14282;SDS011;72649;59.274;18.450;2023-09-19T00:23:16;11.53;;;7.27;;
14282;SDS011;72649;59.274;18.450;2023-09-19T00:25:43;8.43;;;6.03;;
14282;SDS011;72649;59.274;18.450;2023-09-19T00:28:11;11.00;;;6.50;;
14282;SDS011;72649;59.274;18.450;2023-09-19T00:30:38;10.80;;;6.47;;
14282;SDS011;72649;59.274;18.450;2023-09-19T00:33:08;8.70;;;6.53;;
14282;SDS011;72649;59.274;18.450;2023-09-19T00:35:37;11.80;;;6.97;;
14282;SDS011;72649;59.274;18.450;2023-09-19T00:38:04;10.60;;;6.53;;
14282;SDS011;72649;59.274;18.450;2023-09-19T00:40:33;19.00;;;6.93;;
14282;SDS011;72649;59.274;18.450;2023-09-19T00:43:01;10.73;;;6.67;;
14282;SDS011;72649;59.274;18.450;2023-09-19T00:45:28;13.20;;;6.93;;
14282;SDS011;72649;59.274;18.450;2023-09-19T00:47:56;8.77;;;6.83;;
14282;SDS011;72649;59.274;18.450;2023-09-19T00:50:24;9.73;;;6.97;;
14282;SDS011;72649;59.274;18.450;2023-09-19T00:52:55;12.73;;;7.40;;
14282;SDS011;72649;59.274;18.450;2023-09-19T00:55:23;8.33;;;6.17;;
14282;SDS011;72649;59.274;18.450;2023-09-19T00:57:51;9.70;;;6.50;;
14282;SDS011;72649;59.274;18.450;2023-09-19T01:00:19;11.70;;;5.80;;
14282;SDS011;72649;59.274;18.450;2023-09-19T01:02:47;9.40;;;6.77;;
14282;SDS011;72649;59.274;18.450;2023-09-19T01:05:14;9.17;;;6.90;;
14282;SDS011;72649;59.274;18.450;2023-09-19T01:07:42;10.60;;;7.07;;
14282;SDS011;72649;59.274;18.450;2023-09-19T01:10:15;11.10;;;7.60;;
14282;SDS011;72649;59.274;18.450;2023-09-19T01:13:01;14.03;;;7.37;;
14282;SDS011;72649;59.274;18.450;2023-09-19T01:20:40;13.37;;;7.93;;
14282;SDS011;72649;59.274;18.450;2023-09-19T01:29:01;13.67;;;7.97;;
14282;SDS011;72649;59.274;18.450;2023-09-19T01:31:51;11.13;;;6.77;;
14282;SDS011;72649;59.274;18.450;2023-09-19T01:34:21;10.97;;;7.30;;
14282;SDS011;72649;59.274;18.450;2023-09-19T01:36:48;12.57;;;7.20;;
14282;SDS011;72649;59.274;18.450;2023-09-19T01:39:14;13.17;;;8.10;;
14282;SDS011;72649;59.274;18.450;2023-09-19T01:41:51;13.70;;;8.57;;
14282;SDS011;72649;59.274;18.450;2023-09-19T01:44:40;15.33;;;8.97;;
14282;SDS011;72649;59.274;18.450;2023-09-19T01:52:30;12.17;;;8.47;;
14282;SDS011;72649;59.274;18.450;2023-09-19T01:55:05;12.37;;;8.60;;
14282;SDS011;72649;59.274;18.450;2023-09-19T01:57:40;14.73;;;8.40;;
14282;SDS011;72649;59.274;18.450;2023-09-19T02:00:16;13.37;;;8.70;;
14282;SDS011;72649;59.274;18.450;2023-09-19T02:02:48;17.30;;;10.13;;
14282;SDS011;72649;59.274;18.450;2023-09-19T02:05:22;19.13;;;9.67;;
14282;SDS011;72649;59.274;18.450;2023-09-19T02:07:59;14.03;;;9.23;;
14282;SDS011;72649;59.274;18.450;2023-09-19T02:10:27;17.17;;;9.80;;
14282;SDS011;72649;59.274;18.450;2023-09-19T02:12:54;15.23;;;9.73;;
14282;SDS011;72649;59.274;18.450;2023-09-19T02:15:20;16.90;;;10.03;;
14282;SDS011;72649;59.274;18.450;2023-09-19T02:17:48;13.80;;;10.30;;
14282;SDS011;72649;59.274;18.450;2023-09-19T02:20:15;17.70;;;10.50;;
14282;SDS011;72649;59.274;18.450;2023-09-19T02:22:43;11.43;;;8.57;;
14282;SDS011;72649;59.274;18.450;2023-09-19T02:25:10;17.30;;;9.83;;
14282;SDS011;72649;59.274;18.450;2023-09-19T02:27:37;16.20;;;10.60;;
14282;SDS011;72649;59.274;18.450;2023-09-19T02:30:06;17.90;;;11.30;;
14282;SDS011;72649;59.274;18.450;2023-09-19T02:32:33;16.33;;;10.07;;
14282;SDS011;72649;59.274;18.450;2023-09-19T02:35:05;14.47;;;10.40;;
14282;SDS011;72649;59.274;18.450;2023-09-19T02:37:33;18.00;;;10.10;;
14282;SDS011;72649;59.274;18.450;2023-09-19T02:40:01;17.57;;;11.17;;
14282;SDS011;72649;59.274;18.450;2023-09-19T02:42:28;21.13;;;12.00;;
14282;SDS011;72649;59.274;18.450;2023-09-19T02:44:56;17.43;;;11.70;;
14282;SDS011;72649;59.274;18.450;2023-09-19T02:47:23;18.47;;;11.63;;
14282;SDS011;72649;59.274;18.450;2023-09-19T02:49:50;15.20;;;10.63;;
14282;SDS011;72649;59.274;18.450;2023-09-19T02:52:17;16.33;;;11.63;;
14282;SDS011;72649;59.274;18.450;2023-09-19T02:54:45;15.67;;;10.47;;
14282;SDS011;72649;59.274;18.450;2023-09-19T02:57:13;20.63;;;13.10;;
14282;SDS011;72649;59.274;18.450;2023-09-19T02:59:41;20.33;;;12.17;;
14282;SDS011;72649;59.274;18.450;2023-09-19T03:02:10;17.30;;;10.70;;
14282;SDS011;72649;59.274;18.450;2023-09-19T03:04:37;22.27;;;13.13;;
14282;SDS011;72649;59.274;18.450;2023-09-19T03:07:05;17.60;;;12.43;;
14282;SDS011;72649;59.274;18.450;2023-09-19T03:09:32;16.10;;;11.20;;
14282;SDS011;72649;59.274;18.450;2023-09-19T03:11:59;23.50;;;12.97;;
14282;SDS011;72649;59.274;18.450;2023-09-19T03:14:26;20.30;;;12.83;;
14282;SDS011;72649;59.274;18.450;2023-09-19T03:16:56;21.13;;;13.13;;
14282;SDS011;72649;59.274;18.450;2023-09-19T03:19:23;22.17;;;11.83;;
14282;SDS011;72649;59.274;18.450;2023-09-19T03:21:52;17.97;;;12.73;;
14282;SDS011;72649;59.274;18.450;2023-09-19T03:24:19;16.70;;;12.23;;
14282;SDS011;72649;59.274;18.450;2023-09-19T03:26:46;17.77;;;11.77;;
14282;SDS011;72649;59.274;18.450;2023-09-19T03:29:13;15.17;;;12.77;;
14282;SDS011;72649;59.274;18.450;2023-09-19T03:31:42;21.90;;;12.60;;
14282;SDS011;72649;59.274;18.450;2023-09-19T03:34:09;16.07;;;12.77;;
14282;SDS011;72649;59.274;18.450;2023-09-19T03:36:36;18.00;;;12.60;;
14282;SDS011;72649;59.274;18.450;2023-09-19T03:39:03;19.60;;;12.87;;
14282;SDS011;72649;59.274;18.450;2023-09-19T03:41:32;18.83;;;12.90;;
14282;SDS011;72649;59.274;18.450;2023-09-19T03:44:02;19.87;;;12.47;;
14282;SDS011;72649;59.274;18.450;2023-09-19T03:46:29;20.30;;;13.23;;
14282;SDS011;72649;59.274;18.450;2023-09-19T03:48:56;18.50;;;12.40;;
14282;SDS011;72649;59.274;18.450;2023-09-19T03:51:23;20.10;;;13.73;;
14282;SDS011;72649;59.274;18.450;2023-09-19T03:53:50;21.47;;;13.63;;
14282;SDS011;72649;59.274;18.450;2023-09-19T03:56:18;18.73;;;12.83;;
14282;SDS011;72649;59.274;18.450;2023-09-19T03:58:44;19.57;;;14.43;;
14282;SDS011;72649;59.274;18.450;2023-09-19T04:01:11;24.57;;;15.07;;
14282;SDS011;72649;59.274;18.450;2023-09-19T04:03:40;22.17;;;14.67;;
14282;SDS011;72649;59.274;18.450;2023-09-19T04:06:14;19.67;;;14.10;;
14282;SDS011;72649;59.274;18.450;2023-09-19T04:08:42;22.17;;;15.43;;
14282;SDS011;72649;59.274;18.450;2023-09-19T04:11:10;23.53;;;15.27;;
14282;SDS011;72649;59.274;18.450;2023-09-19T04:13:37;20.07;;;15.60;;
14282;SDS011;72649;59.274;18.450;2023-09-19T04:16:05;21.73;;;14.83;;
14282;SDS011;72649;59.274;18.450;2023-09-19T04:18:33;22.53;;;14.33;;
14282;SDS011;72649;59.274;18.450;2023-09-19T04:21:03;21.20;;;14.53;;
14282;SDS011;72649;59.274;18.450;2023-09-19T04:23:32;17.93;;;14.33;;
14282;SDS011;72649;59.274;18.450;2023-09-19T04:25:59;22.10;;;15.13;;
14282;SDS011;72649;59.274;18.450;2023-09-19T04:28:26;22.97;;;15.13;;
14282;SDS011;72649;59.274;18.450;2023-09-19T04:30:54;23.20;;;15.67;;
14282;SDS011;72649;59.274;18.450;2023-09-19T04:33:21;22.97;;;15.47;;
14282;SDS011;72649;59.274;18.450;2023-09-19T04:35:49;26.13;;;16.53;;
14282;SDS011;72649;59.274;18.450;2023-09-19T04:38:17;20.73;;;14.97;;
14282;SDS011;72649;59.274;18.450;2023-09-19T04:40:48;19.83;;;14.43;;
14282;SDS011;72649;59.274;18.450;2023-09-19T04:43:15;19.40;;;15.10;;
14282;SDS011;72649;59.274;18.450;2023-09-19T04:45:43;24.07;;;17.60;;
14282;SDS011;72649;59.274;18.450;2023-09-19T04:48:10;22.60;;;15.87;;
14282;SDS011;72649;59.274;18.450;2023-09-19T04:50:37;26.40;;;17.07;;
14282;SDS011;72649;59.274;18.450;2023-09-19T04:53:05;21.37;;;16.40;;
14282;SDS011;72649;59.274;18.450;2023-09-19T04:55:33;24.40;;;17.53;;
14282;SDS011;72649;59.274;18.450;2023-09-19T04:58:00;20.60;;;16.27;;
14282;SDS011;72649;59.274;18.450;2023-09-19T05:00:27;25.63;;;16.23;;
14282;SDS011;72649;59.274;18.450;2023-09-19T05:02:57;23.90;;;17.00;;
14282;SDS011;72649;59.274;18.450;2023-09-19T05:05:24;25.03;;;17.00;;
14282;SDS011;72649;59.274;18.450;2023-09-19T05:07:52;25.20;;;17.33;;
14282;SDS011;72649;59.274;18.450;2023-09-19T05:10:23;23.83;;;18.07;;
14282;SDS011;72649;59.274;18.450;2023-09-19T05:12:52;27.47;;;17.87;;
14282;SDS011;72649;59.274;18.450;2023-09-19T05:15:20;26.27;;;17.47;;
14282;SDS011;72649;59.274;18.450;2023-09-19T05:17:48;25.67;;;17.97;;
14282;SDS011;72649;59.274;18.450;2023-09-19T05:20:20;34.97;;;19.23;;
14282;SDS011;72649;59.274;18.450;2023-09-19T05:22:59;25.70;;;19.50;;
14282;SDS011;72649;59.274;18.450;2023-09-19T05:25:32;24.80;;;18.63;;
14282;SDS011;72649;59.274;18.450;2023-09-19T05:27:59;22.00;;;18.83;;
14282;SDS011;72649;59.274;18.450;2023-09-19T05:30:30;34.57;;;21.27;;
14282;SDS011;72649;59.274;18.450;2023-09-19T05:32:57;34.50;;;21.33;;
14282;SDS011;72649;59.274;18.450;2023-09-19T05:35:24;28.63;;;19.17;;
14282;SDS011;72649;59.274;18.450;2023-09-19T05:37:53;30.90;;;21.13;;
14282;SDS011;72649;59.274;18.450;2023-09-19T05:40:21;23.87;;;16.50;;
14282;SDS011;72649;59.274;18.450;2023-09-19T05:42:48;27.60;;;18.40;;
14282;SDS011;72649;59.274;18.450;2023-09-19T05:45:16;28.67;;;22.03;;
14282;SDS011;72649;59.274;18.450;2023-09-19T05:47:50;27.70;;;19.73;;
14282;SDS011;72649;59.274;18.450;2023-09-19T05:50:18;29.17;;;19.50;;
14282;SDS011;72649;59.274;18.450;2023-09-19T05:52:51;27.73;;;18.00;;
14282;SDS011;72649;59.274;18.450;2023-09-19T05:55:19;35.37;;;21.73;;
14282;SDS011;72649;59.274;18.450;2023-09-19T05:57:53;40.53;;;21.17;;
14282;SDS011;72649;59.274;18.450;2023-09-19T06:00:21;27.67;;;21.07;;
14282;SDS011;72649;59.274;18.450;2023-09-19T06:02:53;29.07;;;18.67;;
14282;SDS011;72649;59.274;18.450;2023-09-19T06:05:21;25.87;;;18.37;;
14282;SDS011;72649;59.274;18.450;2023-09-19T06:07:49;28.57;;;20.60;;
14282;SDS011;72649;59.274;18.450;2023-09-19T06:10:17;28.77;;;20.10;;
14282;SDS011;72649;59.274;18.450;2023-09-19T06:12:44;22.33;;;18.57;;
14282;SDS011;72649;59.274;18.450;2023-09-19T06:15:15;30.17;;;19.37;;
14282;SDS011;72649;59.274;18.450;2023-09-19T06:17:48;28.00;;;19.90;;
14282;SDS011;72649;59.274;18.450;2023-09-19T06:20:16;27.87;;;18.70;;
14282;SDS011;72649;59.274;18.450;2023-09-19T06:22:44;25.70;;;19.73;;
14282;SDS011;72649;59.274;18.450;2023-09-19T06:25:12;26.23;;;19.37;;
14282;SDS011;72649;59.274;18.450;2023-09-19T06:27:47;21.63;;;19.33;;
14282;SDS011;72649;59.274;18.450;2023-09-19T06:30:15;30.63;;;20.80;;
14282;SDS011;72649;59.274;18.450;2023-09-19T06:32:43;31.03;;;18.40;;
14282;SDS011;72649;59.274;18.450;2023-09-19T06:35:11;29.67;;;20.40;;
14282;SDS011;72649;59.274;18.450;2023-09-19T06:37:39;31.80;;;20.83;;
14282;SDS011;72649;59.274;18.450;2023-09-19T06:40:11;33.37;;;21.83;;
14282;SDS011;72649;59.274;18.450;2023-09-19T06:42:43;30.47;;;21.13;;
14282;SDS011;72649;59.274;18.450;2023-09-19T06:45:15;33.20;;;23.23;;
14282;SDS011;72649;59.274;18.450;2023-09-19T06:47:45;27.63;;;19.87;;
14282;SDS011;72649;59.274;18.450;2023-09-19T06:50:22;25.37;;;18.83;;
14282;SDS011;72649;59.274;18.450;2023-09-19T06:52:50;31.10;;;20.30;;
14282;SDS011;72649;59.274;18.450;2023-09-19T06:55:19;30.27;;;22.13;;
14282;SDS011;72649;59.274;18.450;2023-09-19T06:57:47;26.83;;;22.00;;
14282;SDS011;72649;59.274;18.450;2023-09-19T07:00:15;34.43;;;23.67;;
14282;SDS011;72649;59.274;18.450;2023-09-19T07:02:45;25.87;;;20.93;;
14282;SDS011;72649;59.274;18.450;2023-09-19T07:05:23;27.80;;;21.10;;
14282;SDS011;72649;59.274;18.450;2023-09-19T07:07:50;29.23;;;19.57;;
14282;SDS011;72649;59.274;18.450;2023-09-19T07:10:17;25.63;;;18.43;;
14282;SDS011;72649;59.274;18.450;2023-09-19T07:12:46;26.63;;;20.73;;
14282;SDS011;72649;59.274;18.450;2023-09-19T07:15:13;23.60;;;20.73;;
14282;SDS011;72649;59.274;18.450;2023-09-19T07:17:40;26.50;;;19.70;;
14282;SDS011;72649;59.274;18.450;2023-09-19T07:20:07;27.57;;;21.37;;
14282;SDS011;72649;59.274;18.450;2023-09-19T07:22:34;24.37;;;19.13;;
14282;SDS011;72649;59.274;18.450;2023-09-19T07:25:05;28.27;;;21.93;;
14282;SDS011;72649;59.274;18.450;2023-09-19T07:27:32;25.60;;;18.97;;
14282;SDS011;72649;59.274;18.450;2023-09-19T07:30:00;23.67;;;19.43;;
14282;SDS011;72649;59.274;18.450;2023-09-19T07:32:26;23.07;;;17.93;;
14282;SDS011;72649;59.274;18.450;2023-09-19T07:34:54;21.23;;;18.20;;
14282;SDS011;72649;59.274;18.450;2023-09-19T07:37:21;22.63;;;16.47;;
14282;SDS011;72649;59.274;18.450;2023-09-19T07:39:48;18.63;;;16.63;;
14282;SDS011;72649;59.274;18.450;2023-09-19T07:42:17;23.63;;;18.83;;
14282;SDS011;72649;59.274;18.450;2023-09-19T07:44:44;28.50;;;19.07;;
14282;SDS011;72649;59.274;18.450;2023-09-19T07:47:14;25.57;;;19.23;;
14282;SDS011;72649;59.274;18.450;2023-09-19T07:49:40;26.83;;;20.23;;
14282;SDS011;72649;59.274;18.450;2023-09-19T07:52:09;23.13;;;17.57;;
14282;SDS011;72649;59.274;18.450;2023-09-19T07:54:36;25.17;;;15.93;;
14282;SDS011;72649;59.274;18.450;2023-09-19T07:57:05;25.07;;;18.93;;
14282;SDS011;72649;59.274;18.450;2023-09-19T07:59:32;23.07;;;18.83;;
14282;SDS011;72649;59.274;18.450;2023-09-19T08:01:59;23.90;;;17.83;;
14282;SDS011;72649;59.274;18.450;2023-09-19T08:04:27;27.07;;;17.40;;
14282;SDS011;72649;59.274;18.450;2023-09-19T08:06:54;24.60;;;17.67;;
14282;SDS011;72649;59.274;18.450;2023-09-19T08:09:22;19.23;;;15.77;;
14282;SDS011;72649;59.274;18.450;2023-09-19T08:11:51;22.63;;;16.53;;
14282;SDS011;72649;59.274;18.450;2023-09-19T08:14:18;23.70;;;17.03;;
14282;SDS011;72649;59.274;18.450;2023-09-19T08:16:45;22.83;;;16.33;;
14282;SDS011;72649;59.274;18.450;2023-09-19T08:19:12;22.03;;;16.27;;
14282;SDS011;72649;59.274;18.450;2023-09-19T08:21:39;25.27;;;16.77;;
14282;SDS011;72649;59.274;18.450;2023-09-19T08:24:06;26.33;;;17.63;;
14282;SDS011;72649;59.274;18.450;2023-09-19T08:26:35;24.97;;;17.80;;
14282;SDS011;72649;59.274;18.450;2023-09-19T08:29:04;25.70;;;18.70;;
14282;SDS011;72649;59.274;18.450;2023-09-19T08:31:33;24.60;;;18.57;;
14282;SDS011;72649;59.274;18.450;2023-09-19T08:34:00;27.30;;;17.37;;
14282;SDS011;72649;59.274;18.450;2023-09-19T08:36:27;21.97;;;18.03;;
14282;SDS011;72649;59.274;18.450;2023-09-19T08:38:54;24.77;;;17.47;;
14282;SDS011;72649;59.274;18.450;2023-09-19T08:41:22;24.07;;;18.17;;
14282;SDS011;72649;59.274;18.450;2023-09-19T08:43:49;26.93;;;17.93;;
14282;SDS011;72649;59.274;18.450;2023-09-19T08:46:20;26.20;;;18.00;;
14282;SDS011;72649;59.274;18.450;2023-09-19T08:48:58;28.87;;;20.23;;
14282;SDS011;72649;59.274;18.450;2023-09-19T08:51:45;25.60;;;19.03;;
14282;SDS011;72649;59.274;18.450;2023-09-19T08:54:19;23.10;;;18.33;;
14282;SDS011;72649;59.274;18.450;2023-09-19T08:56:53;24.83;;;18.77;;
14282;SDS011;72649;59.274;18.450;2023-09-19T08:59:23;23.87;;;18.67;;
14282;SDS011;72649;59.274;18.450;2023-09-19T09:01:53;26.33;;;18.80;;
14282;SDS011;72649;59.274;18.450;2023-09-19T09:04:21;27.73;;;19.40;;
14282;SDS011;72649;59.274;18.450;2023-09-19T09:06:49;24.60;;;16.93;;
14282;SDS011;72649;59.274;18.450;2023-09-19T09:09:20;23.00;;;16.53;;
14282;SDS011;72649;59.274;18.450;2023-09-19T09:11:48;22.60;;;17.37;;
14282;SDS011;72649;59.274;18.450;2023-09-19T09:14:17;20.40;;;14.40;;
14282;SDS011;72649;59.274;18.450;2023-09-19T09:16:49;19.63;;;15.73;;
14282;SDS011;72649;59.274;18.450;2023-09-19T09:19:16;24.00;;;17.20;;
14282;SDS011;72649;59.274;18.450;2023-09-19T09:21:51;19.93;;;15.33;;
14282;SDS011;72649;59.274;18.450;2023-09-19T09:27:02;20.80;;;14.53;;
14282;SDS011;72649;59.274;18.450;2023-09-19T09:29:44;23.33;;;16.90;;
14282;SDS011;72649;59.274;18.450;2023-09-19T09:32:35;22.13;;;14.07;;
14282;SDS011;72649;59.274;18.450;2023-09-19T09:35:11;21.67;;;13.53;;
14282;SDS011;72649;59.274;18.450;2023-09-19T09:37:41;18.80;;;13.10;;
14282;SDS011;72649;59.274;18.450;2023-09-19T09:40:09;16.77;;;13.43;;
14282;SDS011;72649;59.274;18.450;2023-09-19T09:42:42;21.30;;;14.47;;
14282;SDS011;72649;59.274;18.450;2023-09-19T09:47:43;21.53;;;14.23;;
14282;SDS011;72649;59.274;18.450;2023-09-19T09:50:24;17.37;;;14.17;;
14282;SDS011;72649;59.274;18.450;2023-09-19T09:53:23;19.43;;;14.50;;
14282;SDS011;72649;59.274;18.450;2023-09-19T09:58:36;18.70;;;13.73;;
14282;SDS011;72649;59.274;18.450;2023-09-19T10:01:16;15.30;;;12.73;;
14282;SDS011;72649;59.274;18.450;2023-09-19T10:03:44;18.50;;;12.70;;
14282;SDS011;72649;59.274;18.450;2023-09-19T10:06:15;14.60;;;11.13;;
14282;SDS011;72649;59.274;18.450;2023-09-19T10:08:59;16.53;;;11.73;;
14282;SDS011;72649;59.274;18.450;2023-09-19T10:11:44;18.40;;;10.97;;
14282;SDS011;72649;59.274;18.450;2023-09-19T10:14:12;19.67;;;11.40;;
14282;SDS011;72649;59.274;18.450;2023-09-19T10:16:46;14.40;;;11.37;;
14282;SDS011;72649;59.274;18.450;2023-09-19T10:19:23;18.67;;;10.90;;
14282;SDS011;72649;59.274;18.450;2023-09-19T10:22:01;13.07;;;10.27;;
14282;SDS011;72649;59.274;18.450;2023-09-19T10:24:31;14.37;;;9.07;;
14282;SDS011;72649;59.274;18.450;2023-09-19T10:27:17;14.70;;;9.17;;
14282;SDS011;72649;59.274;18.450;2023-09-19T10:29:47;12.47;;;9.07;;
14282;SDS011;72649;59.274;18.450;2023-09-19T10:32:17;10.17;;;9.17;;
14282;SDS011;72649;59.274;18.450;2023-09-19T10:34:49;11.27;;;8.97;;
14282;SDS011;72649;59.274;18.450;2023-09-19T10:37:16;14.13;;;8.70;;
14282;SDS011;72649;59.274;18.450;2023-09-19T10:39:47;11.20;;;8.40;;
14282;SDS011;72649;59.274;18.450;2023-09-19T10:42:16;12.50;;;9.07;;
14282;SDS011;72649;59.274;18.450;2023-09-19T10:44:47;10.37;;;7.97;;
14282;SDS011;72649;59.274;18.450;2023-09-19T10:47:20;13.50;;;8.77;;
14282;SDS011;72649;59.274;18.450;2023-09-19T10:49:50;11.93;;;8.43;;
14282;SDS011;72649;59.274;18.450;2023-09-19T10:52:23;11.63;;;7.40;;
14282;SDS011;72649;59.274;18.450;2023-09-19T10:54:53;11.63;;;7.87;;
14282;SDS011;72649;59.274;18.450;2023-09-19T10:57:24;10.23;;;7.73;;
14282;SDS011;72649;59.274;18.450;2023-09-19T11:00:03;8.88;;;7.47;;
14282;SDS011;72649;59.274;18.450;2023-09-19T11:03:34;9.50;;;7.80;;
14282;SDS011;72649;59.274;18.450;2023-09-19T11:05:38;12.13;;;6.30;;
14282;SDS011;72649;59.274;18.450;2023-09-19T11:08:07;8.13;;;6.30;;
14282;SDS011;72649;59.274;18.450;2023-09-19T11:10:47;8.43;;;5.53;;
14282;SDS011;72649;59.274;18.450;2023-09-19T11:13:25;9.65;;;6.20;;
14282;SDS011;72649;59.274;18.450;2023-09-19T11:26:51;9.32;;;4.68;;
14282;SDS011;72649;59.274;18.450;2023-09-19T11:29:34;7.07;;;5.35;;
14282;SDS011;72649;59.274;18.450;2023-09-19T11:32:02;6.82;;;4.68;;
14282;SDS011;72649;59.274;18.450;2023-09-19T11:34:37;6.47;;;4.13;;
14282;SDS011;72649;59.274;18.450;2023-09-19T11:42:42;6.00;;;3.63;;
14282;SDS011;72649;59.274;18.450;2023-09-19T11:48:24;5.50;;;3.40;;
14282;SDS011;72649;59.274;18.450;2023-09-19T11:50:53;5.88;;;3.47;;
14282;SDS011;72649;59.274;18.450;2023-09-19T11:53:21;4.63;;;3.30;;
14282;SDS011;72649;59.274;18.450;2023-09-19T11:55:49;8.85;;;3.95;;
14282;SDS011;72649;59.274;18.450;2023-09-19T11:58:17;4.13;;;2.95;;
14282;SDS011;72649;59.274;18.450;2023-09-19T12:00:46;4.78;;;2.85;;
14282;SDS011;72649;59.274;18.450;2023-09-19T12:03:27;5.65;;;2.38;;
14282;SDS011;72649;59.274;18.450;2023-09-19T12:05:57;5.80;;;2.65;;
14282;SDS011;72649;59.274;18.450;2023-09-19T12:08:25;5.00;;;2.47;;
14282;SDS011;72649;59.274;18.450;2023-09-19T12:10:53;4.38;;;2.63;;
14282;SDS011;72649;59.274;18.450;2023-09-19T12:13:22;3.50;;;2.50;;
14282;SDS011;72649;59.274;18.450;2023-09-19T12:15:49;6.80;;;2.58;;
14282;SDS011;72649;59.274;18.450;2023-09-19T12:18:25;2.78;;;2.30;;
14282;SDS011;72649;59.274;18.450;2023-09-19T12:20:56;3.85;;;2.53;;
14282;SDS011;72649;59.274;18.450;2023-09-19T12:23:24;4.60;;;1.95;;
14282;SDS011;72649;59.274;18.450;2023-09-19T12:25:54;4.75;;;2.33;;
14282;SDS011;72649;59.274;18.450;2023-09-19T12:28:27;3.40;;;1.95;;
14282;SDS011;72649;59.274;18.450;2023-09-19T12:31:06;5.13;;;1.98;;
14282;SDS011;72649;59.274;18.450;2023-09-19T12:33:34;2.42;;;1.38;;
14282;SDS011;72649;59.274;18.450;2023-09-19T12:36:18;1.88;;;1.33;;
14282;SDS011;72649;59.274;18.450;2023-09-19T12:38:56;1.90;;;1.25;;
14282;SDS011;72649;59.274;18.450;2023-09-19T12:41:26;2.75;;;1.55;;
14282;SDS011;72649;59.274;18.450;2023-09-19T12:43:53;2.15;;;1.40;;
14282;SDS011;72649;59.274;18.450;2023-09-19T12:46:21;4.95;;;1.67;;
14282;SDS011;72649;59.274;18.450;2023-09-19T12:51:43;3.80;;;1.20;;
14282;SDS011;72649;59.274;18.450;2023-09-19T12:54:11;1.73;;;1.27;;
14282;SDS011;72649;59.274;18.450;2023-09-19T12:56:41;2.10;;;1.00;;
14282;SDS011;72649;59.274;18.450;2023-09-19T12:59:14;3.38;;;1.42;;
14282;SDS011;72649;59.274;18.450;2023-09-19T13:01:42;1.77;;;1.10;;
14282;SDS011;72649;59.274;18.450;2023-09-19T13:04:16;2.50;;;1.48;;
14282;SDS011;72649;59.274;18.450;2023-09-19T13:06:46;2.38;;;1.40;;
14282;SDS011;72649;59.274;18.450;2023-09-19T13:09:16;1.77;;;1.00;;
14282;SDS011;72649;59.274;18.450;2023-09-19T13:11:44;2.40;;;1.42;;
14282;SDS011;72649;59.274;18.450;2023-09-19T13:17:04;2.38;;;1.15;;
14282;SDS011;72649;59.274;18.450;2023-09-19T13:19:46;2.55;;;1.10;;
14282;SDS011;72649;59.274;18.450;2023-09-19T13:22:39;3.65;;;1.60;;
14282;SDS011;72649;59.274;18.450;2023-09-19T13:25:16;2.28;;;1.25;;
14282;SDS011;72649;59.274;18.450;2023-09-19T13:27:46;3.47;;;1.60;;
14282;SDS011;72649;59.274;18.450;2023-09-19T13:30:19;3.60;;;1.33;;
14282;SDS011;72649;59.274;18.450;2023-09-19T13:32:47;2.83;;;1.30;;
14282;SDS011;72649;59.274;18.450;2023-09-19T13:35:14;3.20;;;1.70;;
14282;SDS011;72649;59.274;18.450;2023-09-19T13:37:42;2.25;;;1.40;;
14282;SDS011;72649;59.274;18.450;2023-09-19T13:40:13;2.38;;;1.20;;
14282;SDS011;72649;59.274;18.450;2023-09-19T13:42:41;2.60;;;1.40;;
14282;SDS011;72649;59.274;18.450;2023-09-19T13:45:09;3.15;;;1.58;;
14282;SDS011;72649;59.274;18.450;2023-09-19T13:47:39;2.92;;;1.23;;
14282;SDS011;72649;59.274;18.450;2023-09-19T13:50:07;2.30;;;1.52;;
14282;SDS011;72649;59.274;18.450;2023-09-19T13:52:35;3.38;;;1.52;;
14282;SDS011;72649;59.274;18.450;2023-09-19T13:55:02;2.17;;;1.40;;
14282;SDS011;72649;59.274;18.450;2023-09-19T13:57:29;4.03;;;1.63;;
14282;SDS011;72649;59.274;18.450;2023-09-19T13:59:56;2.22;;;1.40;;
14282;SDS011;72649;59.274;18.450;2023-09-19T14:02:23;4.72;;;1.45;;
14282;SDS011;72649;59.274;18.450;2023-09-19T14:04:51;3.83;;;1.65;;
14282;SDS011;72649;59.274;18.450;2023-09-19T14:07:18;4.97;;;1.67;;
14282;SDS011;72649;59.274;18.450;2023-09-19T14:09:46;3.13;;;1.40;;
14282;SDS011;72649;59.274;18.450;2023-09-19T14:12:14;3.03;;;1.42;;
14282;SDS011;72649;59.274;18.450;2023-09-19T14:14:41;2.13;;;1.30;;
14282;SDS011;72649;59.274;18.450;2023-09-19T14:17:09;2.17;;;1.10;;
14282;SDS011;72649;59.274;18.450;2023-09-19T14:19:36;2.63;;;1.50;;
14282;SDS011;72649;59.274;18.450;2023-09-19T14:22:04;3.17;;;1.50;;
14282;SDS011;72649;59.274;18.450;2023-09-19T14:24:34;4.33;;;1.73;;
14282;SDS011;72649;59.274;18.450;2023-09-19T14:27:02;4.47;;;1.40;;
14282;SDS011;72649;59.274;18.450;2023-09-19T14:29:30;3.43;;;1.63;;
14282;SDS011;72649;59.274;18.450;2023-09-19T14:31:58;1.77;;;1.17;;
14282;SDS011;72649;59.274;18.450;2023-09-19T14:34:26;2.90;;;1.60;;
14282;SDS011;72649;59.274;18.450;2023-09-19T14:36:53;4.10;;;1.20;;
14282;SDS011;72649;59.274;18.450;2023-09-19T14:39:21;4.83;;;1.33;;
14282;SDS011;72649;59.274;18.450;2023-09-19T14:41:48;3.50;;;1.40;;
14282;SDS011;72649;59.274;18.450;2023-09-19T14:44:15;3.70;;;1.43;;
14282;SDS011;72649;59.274;18.450;2023-09-19T14:46:42;1.70;;;1.30;;
14282;SDS011;72649;59.274;18.450;2023-09-19T14:49:12;2.37;;;1.53;;
14282;SDS011;72649;59.274;18.450;2023-09-19T14:51:42;4.33;;;1.27;;
14282;SDS011;72649;59.274;18.450;2023-09-19T14:54:14;3.93;;;1.80;;
14282;SDS011;72649;59.274;18.450;2023-09-19T14:56:44;3.37;;;1.20;;
14282;SDS011;72649;59.274;18.450;2023-09-19T14:59:11;4.97;;;1.50;;
14282;SDS011;72649;59.274;18.450;2023-09-19T15:01:39;2.30;;;1.23;;
14282;SDS011;72649;59.274;18.450;2023-09-19T15:04:07;5.07;;;1.40;;
14282;SDS011;72649;59.274;18.450;2023-09-19T15:06:35;3.10;;;1.63;;
14282;SDS011;72649;59.274;18.450;2023-09-19T15:09:02;3.43;;;1.33;;
14282;SDS011;72649;59.274;18.450;2023-09-19T15:11:31;3.73;;;1.30;;
14282;SDS011;72649;59.274;18.450;2023-09-19T15:13:58;6.63;;;1.50;;
14282;SDS011;72649;59.274;18.450;2023-09-19T15:16:25;2.53;;;1.10;;
14282;SDS011;72649;59.274;18.450;2023-09-19T15:18:53;3.07;;;1.03;;
14282;SDS011;72649;59.274;18.450;2023-09-19T15:21:21;4.43;;;1.33;;
14282;SDS011;72649;59.274;18.450;2023-09-19T15:23:49;5.40;;;1.23;;